createdAt,value
2018-10-21T00:02:16.277Z,66.60
2018-10-21T00:04:44.591Z,66.80
2018-10-21T00:07:12.737Z,66.80
2018-10-21T00:09:40.839Z,66.90
2018-10-21T00:12:08.938Z,67.80
2018-10-21T00:14:37.030Z,67.60
2018-10-21T00:17:05.258Z,67.70
2018-10-21T00:19:33.343Z,67.60
2018-10-21T00:22:01.492Z,67.50
2018-10-21T00:24:29.579Z,67.30
2018-10-21T00:26:57.793Z,67.30
2018-10-21T00:29:25.849Z,67.10
2018-10-21T00:31:53.929Z,67.70
2018-10-21T00:34:22.057Z,67.10
2018-10-21T00:36:50.155Z,67.00
2018-10-21T00:39:18.250Z,66.90
2018-10-21T00:41:46.344Z,66.70
2018-10-21T00:44:14.406Z,66.90
2018-10-21T00:46:42.480Z,67.70
2018-10-21T00:49:10.589Z,66.70
2018-10-21T00:51:38.838Z,66.80
2018-10-21T00:54:12.260Z,66.70
2018-10-21T00:56:40.365Z,66.70
2018-10-21T00:59:09.474Z,66.80
2018-10-21T01:01:37.614Z,66.90
2018-10-21T01:04:05.945Z,66.80
2018-10-21T01:06:34.292Z,66.90
2018-10-21T01:09:02.652Z,66.90
2018-10-21T01:11:30.671Z,66.70
2018-10-21T01:13:58.743Z,67.00
2018-10-21T01:16:26.840Z,67.00
2018-10-21T01:18:54.978Z,67.00
2018-10-21T01:21:23.071Z,67.00
2018-10-21T01:23:51.168Z,67.10
2018-10-21T01:26:19.256Z,67.00
2018-10-21T01:28:47.355Z,67.10
2018-10-21T01:31:15.428Z,67.00
2018-10-21T01:33:43.558Z,67.20
2018-10-21T01:36:11.730Z,67.20
2018-10-21T01:38:39.743Z,67.20
2018-10-21T01:41:07.927Z,67.10
2018-10-21T01:43:36.038Z,67.10
2018-10-21T01:46:04.117Z,67.10
2018-10-21T01:48:32.863Z,67.00
2018-10-21T01:51:01.022Z,67.00
2018-10-21T01:53:29.097Z,67.10
2018-10-21T01:55:57.215Z,67.20
2018-10-21T01:58:25.343Z,67.20
2018-10-21T02:00:53.451Z,67.00
2018-10-21T02:03:21.548Z,67.20
2018-10-21T02:05:49.658Z,67.30
2018-10-21T02:08:17.788Z,67.50
2018-10-21T02:10:45.912Z,67.60
2018-10-21T02:13:14.042Z,67.60
2018-10-21T02:15:42.136Z,67.80
2018-10-21T02:18:10.239Z,68.20
2018-10-21T02:20:38.393Z,68.10
2018-10-21T02:23:06.492Z,68.20
2018-10-21T02:25:34.575Z,68.60
2018-10-21T02:28:02.712Z,69.00
2018-10-21T02:30:31.403Z,68.90
2018-10-21T02:33:00.255Z,69.00
2018-10-21T02:35:28.257Z,69.10
2018-10-21T02:37:57.009Z,69.00
2018-10-21T02:41:36.307Z,69.00
2018-10-21T02:44:05.182Z,69.10
2018-10-21T02:46:33.767Z,69.10
2018-10-21T02:49:02.727Z,69.40
2018-10-21T02:51:30.838Z,69.40
2018-10-21T02:53:58.921Z,69.50
2018-10-21T02:56:27.030Z,70.20
2018-10-21T02:58:55.130Z,69.60
2018-10-21T03:01:23.222Z,69.70
2018-10-21T03:03:51.322Z,69.90
2018-10-21T03:06:19.532Z,69.90
2018-10-21T03:08:47.663Z,70.10
2018-10-21T03:11:15.858Z,70.40
2018-10-21T03:13:43.906Z,70.40
2018-10-21T03:16:12.017Z,70.40
2018-10-21T03:18:40.135Z,70.50
2018-10-21T03:21:08.309Z,70.60
2018-10-21T03:23:36.579Z,71.10
2018-10-21T03:26:04.820Z,70.90
2018-10-21T03:28:33.329Z,71.00
2018-10-21T03:31:01.660Z,71.10
2018-10-21T03:33:29.917Z,71.50
2018-10-21T03:35:57.975Z,71.70
2018-10-21T03:38:26.315Z,71.60
2018-10-21T03:40:54.478Z,72.20
2018-10-21T03:43:22.595Z,71.90
2018-10-21T03:45:50.686Z,72.20
2018-10-21T03:48:18.800Z,72.20
2018-10-21T03:50:46.893Z,72.30
2018-10-21T03:53:15.003Z,72.10
2018-10-21T03:55:43.576Z,71.90
2018-10-21T03:58:11.723Z,72.20
2018-10-21T04:00:39.973Z,72.30
2018-10-21T04:03:08.497Z,72.50
2018-10-21T04:05:36.872Z,72.50
2018-10-21T04:08:05.062Z,72.60
2018-10-21T04:10:33.414Z,72.70
2018-10-21T04:13:01.532Z,72.60
2018-10-21T04:15:29.604Z,72.70
2018-10-21T04:17:57.716Z,72.70
2018-10-21T04:20:25.842Z,72.80
2018-10-21T04:22:56.607Z,72.90
2018-10-21T04:25:25.685Z,73.00
2018-10-21T04:27:54.634Z,72.60
2018-10-21T04:30:25.889Z,72.60
2018-10-21T04:32:56.611Z,72.60
2018-10-21T04:35:25.034Z,72.50
2018-10-21T04:40:11.873Z,72.70
2018-10-21T04:42:39.919Z,72.90
2018-10-21T04:45:08.558Z,72.30
2018-10-21T04:47:36.675Z,73.50
2018-10-21T04:50:05.261Z,73.10
2018-10-21T04:52:33.827Z,73.20
2018-10-21T04:55:06.405Z,73.20
2018-10-21T04:57:35.293Z,73.20
2018-10-21T05:00:03.603Z,73.50
2018-10-21T05:02:32.233Z,73.40
2018-10-21T05:05:00.542Z,73.50
2018-10-21T05:07:28.679Z,73.50
2018-10-21T05:09:56.778Z,73.30
2018-10-21T05:12:24.847Z,73.60
2018-10-21T05:14:52.947Z,73.60
2018-10-21T05:17:21.044Z,73.60
2018-10-21T05:19:49.151Z,73.50
2018-10-21T05:22:17.400Z,73.70
2018-10-21T05:24:45.381Z,73.70
2018-10-21T05:27:13.466Z,73.20
2018-10-21T05:29:41.579Z,73.40
2018-10-21T05:32:09.723Z,73.60
2018-10-21T05:34:38.405Z,73.20
2018-10-21T05:37:06.782Z,73.20
2018-10-21T05:39:34.884Z,73.50
2018-10-21T05:42:03.011Z,73.40
2018-10-21T05:44:31.095Z,73.20
2018-10-21T05:46:59.228Z,73.20
2018-10-21T05:49:27.270Z,73.20
2018-10-21T05:51:55.397Z,73.30
2018-10-21T05:54:23.449Z,73.30
2018-10-21T05:56:51.862Z,73.20
2018-10-21T05:59:19.957Z,73.20
2018-10-21T06:01:48.515Z,73.20
2018-10-21T06:04:17.544Z,73.30
2018-10-21T06:06:45.552Z,74.40
2018-10-21T06:09:14.479Z,74.40
2018-10-21T06:11:42.569Z,74.40
2018-10-21T06:14:10.671Z,74.20
2018-10-21T06:16:43.966Z,73.90
2018-10-21T06:19:12.970Z,73.90
2018-10-21T06:21:42.418Z,73.70
2018-10-21T06:24:10.490Z,73.50
2018-10-21T06:26:38.569Z,73.10
2018-10-21T06:29:06.650Z,73.10
2018-10-21T06:31:34.755Z,73.20
2018-10-21T06:34:02.824Z,73.20
2018-10-21T06:36:30.955Z,73.10
2018-10-21T06:38:59.037Z,73.00
2018-10-21T06:41:27.071Z,73.00
2018-10-21T06:43:55.244Z,72.90
2018-10-21T06:46:23.303Z,73.00
2018-10-21T06:48:51.407Z,73.10
2018-10-21T06:51:19.503Z,73.90
2018-10-21T06:53:47.579Z,73.00
2018-10-21T06:56:15.690Z,73.00
2018-10-21T06:58:43.743Z,73.10
2018-10-21T07:01:12.022Z,73.10
2018-10-21T07:03:40.114Z,73.50
2018-10-21T07:06:11.511Z,73.10
2018-10-21T07:08:39.598Z,73.50
2018-10-21T07:11:07.761Z,73.60
2018-10-21T07:13:36.171Z,73.40
2018-10-21T07:16:04.755Z,73.70
2018-10-21T07:18:32.894Z,73.70
2018-10-21T07:21:01.062Z,73.70
2018-10-21T07:23:29.147Z,73.40
2018-10-21T07:25:57.254Z,73.60
2018-10-21T07:28:25.534Z,73.30
2018-10-21T07:30:53.555Z,73.40
2018-10-21T07:33:21.672Z,73.40
2018-10-21T07:35:49.781Z,73.50
2018-10-21T07:38:17.863Z,73.80
2018-10-21T07:40:46.075Z,73.50
2018-10-21T07:43:14.188Z,73.90
2018-10-21T07:45:42.319Z,73.80
2018-10-21T07:48:10.400Z,73.50
2018-10-21T07:50:38.541Z,73.30
2018-10-21T07:53:06.621Z,73.20
2018-10-21T07:55:34.794Z,73.10
2018-10-21T07:58:02.873Z,73.20
2018-10-21T08:00:30.942Z,73.20
2018-10-21T08:02:59.006Z,73.30
2018-10-21T08:05:38.578Z,73.40
2018-10-21T08:08:12.187Z,73.40
2018-10-21T08:10:40.453Z,74.30
2018-10-21T08:13:09.746Z,73.40
2018-10-21T08:15:37.848Z,73.20
2018-10-21T08:18:06.503Z,73.00
2018-10-21T08:20:34.691Z,72.80
2018-10-21T08:23:02.807Z,72.60
2018-10-21T08:25:31.026Z,72.60
2018-10-21T08:27:59.126Z,72.50
2018-10-21T08:30:27.223Z,72.10
2018-10-21T08:32:55.325Z,72.20
2018-10-21T08:35:23.492Z,71.90
2018-10-21T08:37:52.025Z,71.50
2018-10-21T08:40:20.136Z,71.20
2018-10-21T08:42:48.244Z,70.60
2018-10-21T08:45:16.332Z,70.80
2018-10-21T08:47:44.493Z,70.60
2018-10-21T08:50:13.495Z,70.80
2018-10-21T08:52:41.802Z,70.30
2018-10-21T08:55:11.086Z,70.20
2018-10-21T08:57:39.259Z,70.50
2018-10-21T09:00:09.857Z,70.20
2018-10-21T09:02:48.551Z,70.20
2018-10-21T09:05:18.072Z,70.00
2018-10-21T09:07:46.487Z,69.60
2018-10-21T09:10:15.674Z,69.50
2018-10-21T09:12:43.711Z,69.20
2018-10-21T09:15:13.948Z,69.10
2018-10-21T09:17:42.065Z,69.10
2018-10-21T09:20:13.161Z,68.90
2018-10-21T09:22:41.255Z,68.60
2018-10-21T09:25:10.330Z,68.90
2018-10-21T09:27:39.083Z,68.80
2018-10-21T09:30:08.648Z,68.40
2018-10-21T09:32:37.630Z,68.80
2018-10-21T09:35:07.023Z,68.60
2018-10-21T09:37:35.120Z,68.60
2018-10-21T09:40:03.626Z,68.50
2018-10-21T09:42:31.633Z,68.40
2018-10-21T09:44:59.744Z,68.50
2018-10-21T09:47:27.864Z,68.30
2018-10-21T09:49:56.011Z,68.30
2018-10-21T09:52:24.059Z,68.10
2018-10-21T09:54:52.352Z,68.10
2018-10-21T09:57:20.511Z,68.10
2018-10-21T09:59:48.615Z,67.40
2018-10-21T10:02:22.063Z,67.60
2018-10-21T10:04:50.205Z,67.40
2018-10-21T10:07:18.430Z,67.50
2018-10-21T10:09:46.420Z,67.50
2018-10-21T10:12:14.560Z,67.30
2018-10-21T10:14:42.735Z,67.50
2018-10-21T10:17:10.863Z,67.20
2018-10-21T10:19:38.972Z,67.10
2018-10-21T10:22:07.099Z,66.90
2018-10-21T10:24:35.422Z,67.00
2018-10-21T10:27:03.672Z,67.10
2018-10-21T10:29:31.770Z,66.20
2018-10-21T10:31:59.843Z,66.00
2018-10-21T10:34:27.941Z,65.80
2018-10-21T10:36:56.042Z,65.50
2018-10-21T10:39:24.140Z,65.20
2018-10-21T10:41:52.296Z,64.80
2018-10-21T10:44:20.342Z,64.70
2018-10-21T10:46:48.427Z,64.40
2018-10-21T10:49:16.628Z,64.50
2018-10-21T10:51:44.606Z,63.40
2018-10-21T10:54:12.744Z,64.00
2018-10-21T10:56:40.959Z,64.00
2018-10-21T10:59:09.045Z,64.00
2018-10-21T11:01:37.127Z,64.00
2018-10-21T11:04:05.257Z,64.00
2018-10-21T11:06:33.291Z,64.10
2018-10-21T11:09:01.379Z,63.80
2018-10-21T11:11:29.483Z,63.90
2018-10-21T11:13:57.584Z,63.80
2018-10-21T11:16:25.667Z,63.60
2018-10-21T11:18:53.803Z,63.50
2018-10-21T11:21:21.832Z,63.20
2018-10-21T11:23:49.906Z,62.90
2018-10-21T11:26:17.998Z,62.80
2018-10-21T11:28:46.969Z,62.30
2018-10-21T11:31:15.053Z,62.30
2018-10-21T11:33:43.118Z,62.20
2018-10-21T11:36:11.213Z,62.20
2018-10-21T11:38:39.297Z,62.10
2018-10-21T11:41:07.505Z,61.60
2018-10-21T11:43:35.551Z,61.70
2018-10-21T11:46:03.697Z,61.70
2018-10-21T11:48:31.761Z,61.60
2018-10-21T11:50:59.867Z,61.50
2018-10-21T11:53:27.956Z,61.30
2018-10-21T11:55:56.026Z,61.50
2018-10-21T11:58:24.114Z,61.10
2018-10-21T12:00:52.211Z,60.80
2018-10-21T12:03:20.318Z,60.50
2018-10-21T12:05:48.392Z,60.20
2018-10-21T12:08:16.494Z,60.30
2018-10-21T12:10:44.583Z,60.10
2018-10-21T12:13:12.710Z,60.10
2018-10-21T12:15:41.306Z,60.10
2018-10-21T12:18:09.496Z,60.00
2018-10-21T12:20:38.354Z,60.20
2018-10-21T12:23:06.599Z,59.80
2018-10-21T12:25:34.591Z,59.70
2018-10-21T12:28:02.679Z,59.70
2018-10-21T12:30:30.791Z,59.60
2018-10-21T12:32:58.818Z,59.30
2018-10-21T12:35:26.891Z,59.40
2018-10-21T12:37:54.962Z,59.40
2018-10-21T12:40:23.052Z,59.10
2018-10-21T12:42:51.139Z,59.10
2018-10-21T12:45:19.276Z,59.00
2018-10-21T12:47:47.318Z,58.80
2018-10-21T12:50:15.421Z,59.10
2018-10-21T12:55:16.491Z,58.20
2018-10-21T12:57:44.551Z,58.60
2018-10-21T13:00:12.711Z,58.70
2018-10-21T13:02:40.828Z,58.40
2018-10-21T13:05:08.936Z,58.60
2018-10-21T13:07:37.005Z,58.30
2018-10-21T13:10:05.921Z,58.10
2018-10-21T13:12:34.259Z,57.90
2018-10-21T13:15:02.443Z,57.70
2018-10-21T13:17:30.520Z,58.20
2018-10-21T13:19:58.615Z,57.60
2018-10-21T13:22:26.720Z,57.80
2018-10-21T13:24:54.863Z,57.30
2018-10-21T13:27:22.911Z,57.50
2018-10-21T13:29:51.025Z,56.70
2018-10-21T13:32:19.110Z,56.80
2018-10-21T13:34:47.283Z,56.60
2018-10-21T13:37:15.389Z,56.40
2018-10-21T13:39:43.415Z,56.20
2018-10-21T13:42:11.542Z,56.20
2018-10-21T13:44:39.604Z,55.80
2018-10-21T13:47:07.711Z,55.80
2018-10-21T13:49:35.850Z,55.90
2018-10-21T13:52:04.083Z,55.30
2018-10-21T13:54:32.067Z,55.30
2018-10-21T13:57:00.168Z,55.20
2018-10-21T13:59:28.279Z,55.10
2018-10-21T14:01:56.434Z,55.20
2018-10-21T14:04:24.518Z,55.50
2018-10-21T14:06:52.670Z,55.60
2018-10-21T14:09:20.697Z,54.60
2018-10-21T14:11:48.817Z,54.60
2018-10-21T14:14:17.388Z,54.50
2018-10-21T14:16:45.652Z,54.30
2018-10-21T14:19:13.690Z,54.00
2018-10-21T14:21:41.824Z,52.00
2018-10-21T14:24:09.949Z,53.00
2018-10-21T14:26:38.003Z,53.00
2018-10-21T14:29:06.139Z,53.10
2018-10-21T14:31:34.238Z,53.10
2018-10-21T14:34:02.338Z,52.90
2018-10-21T14:36:30.425Z,53.10
2018-10-21T14:38:58.553Z,53.20
2018-10-21T14:41:26.667Z,53.20
2018-10-21T14:43:54.771Z,53.10
2018-10-21T14:46:22.868Z,53.20
2018-10-21T14:48:50.958Z,53.40
2018-10-21T14:51:20.053Z,53.60
2018-10-21T14:53:48.123Z,53.60
2018-10-21T14:56:16.272Z,53.90
2018-10-21T14:58:44.413Z,53.80
2018-10-21T15:01:13.251Z,53.70
2018-10-21T15:03:45.164Z,53.90
2018-10-21T15:06:13.282Z,54.30
2018-10-21T15:08:41.345Z,54.50
2018-10-21T15:11:09.487Z,54.40
2018-10-21T15:13:37.622Z,54.40
2018-10-21T15:16:05.769Z,54.60
2018-10-21T15:18:33.871Z,54.80
2018-10-21T15:21:02.079Z,54.60
2018-10-21T15:23:30.322Z,54.80
2018-10-21T15:25:58.347Z,54.80
2018-10-21T15:28:26.383Z,54.70
2018-10-21T15:30:54.484Z,54.70
2018-10-21T15:33:22.562Z,55.00
2018-10-21T15:35:50.651Z,55.20
2018-10-21T15:38:18.816Z,55.20
2018-10-21T15:40:46.884Z,55.20
2018-10-21T15:43:14.974Z,55.20
2018-10-21T15:45:43.162Z,55.30
2018-10-21T15:48:11.229Z,55.40
2018-10-21T15:50:39.321Z,55.30
2018-10-21T15:53:07.403Z,55.40
2018-10-21T15:55:35.572Z,55.50
2018-10-21T15:58:03.724Z,55.50
2018-10-21T16:00:31.738Z,55.50
2018-10-21T16:02:59.842Z,55.50
2018-10-21T16:05:27.931Z,55.60
2018-10-21T16:07:56.025Z,55.70
2018-10-21T16:10:24.085Z,55.70
2018-10-21T16:12:52.150Z,55.70
2018-10-21T16:15:20.219Z,55.70
2018-10-21T16:17:48.307Z,55.90
2018-10-21T16:20:16.497Z,55.80
2018-10-21T16:22:45.247Z,55.90
2018-10-21T16:25:14.568Z,56.10
2018-10-21T16:27:42.894Z,56.10
2018-10-21T16:30:13.143Z,56.10
2018-10-21T16:32:41.975Z,56.30
2018-10-21T16:35:10.643Z,56.30
2018-10-21T16:37:39.412Z,56.30
2018-10-21T16:40:09.538Z,56.40
2018-10-21T16:42:37.913Z,56.40
2018-10-21T16:45:06.472Z,56.30
2018-10-21T16:47:34.920Z,56.50
2018-10-21T16:50:02.982Z,56.50
2018-10-21T16:52:31.124Z,56.50
2018-10-21T16:54:59.248Z,56.60
2018-10-21T16:57:27.364Z,56.70
2018-10-21T16:59:55.564Z,56.70
2018-10-21T17:02:23.499Z,56.80
2018-10-21T17:04:51.566Z,56.70
2018-10-21T17:07:19.728Z,56.90
2018-10-21T17:09:48.176Z,57.00
2018-10-21T17:12:15.839Z,57.00
2018-10-21T17:14:43.987Z,57.00
2018-10-21T17:17:12.783Z,57.00
2018-10-21T17:19:40.744Z,57.00
2018-10-21T17:22:08.847Z,57.00
2018-10-21T17:24:36.915Z,57.10
2018-10-21T17:27:05.288Z,57.00
2018-10-21T17:29:33.379Z,57.10
2018-10-21T17:32:01.481Z,57.00
2018-10-21T17:34:29.567Z,57.30
2018-10-21T17:36:57.708Z,57.20
2018-10-21T17:39:25.742Z,57.20
2018-10-21T17:41:53.919Z,57.20
2018-10-21T17:44:22.016Z,57.20
2018-10-21T17:46:50.071Z,57.30
2018-10-21T17:49:18.776Z,57.20
2018-10-21T17:51:46.864Z,57.30
2018-10-21T17:54:14.986Z,57.50
2018-10-21T17:56:48.347Z,57.50
2018-10-21T17:59:16.427Z,57.60
2018-10-21T18:01:44.511Z,57.60
2018-10-21T18:04:12.782Z,57.60
2018-10-21T18:06:40.889Z,57.70
2018-10-21T18:09:10.483Z,58.00
2018-10-21T18:11:38.548Z,58.10
2018-10-21T18:14:06.976Z,58.10
2018-10-21T18:16:35.187Z,58.10
2018-10-21T18:19:03.410Z,58.00
2018-10-21T18:21:31.438Z,58.00
2018-10-21T18:23:59.559Z,57.90
2018-10-21T18:26:27.635Z,57.80
2018-10-21T18:28:55.795Z,57.80
2018-10-21T18:31:23.862Z,57.90
2018-10-21T18:33:51.953Z,58.00
2018-10-21T18:36:20.043Z,58.10
2018-10-21T18:38:48.131Z,58.10
2018-10-21T18:41:16.721Z,58.10
2018-10-21T18:43:44.624Z,58.00
2018-10-21T18:46:12.816Z,58.10
2018-10-21T18:48:40.874Z,58.00
2018-10-21T18:51:08.946Z,58.20
2018-10-21T18:53:37.033Z,58.00
2018-10-21T18:56:05.342Z,58.00
2018-10-21T18:58:33.474Z,58.10
2018-10-21T19:01:01.561Z,58.30
2018-10-21T19:03:29.634Z,58.20
2018-10-21T19:05:57.718Z,58.40
2018-10-21T19:08:25.790Z,58.40
2018-10-21T19:10:53.911Z,58.40
2018-10-21T19:13:22.361Z,58.30
2018-10-21T19:15:50.226Z,58.30
2018-10-21T19:18:18.298Z,58.30
2018-10-21T19:20:46.426Z,58.40
2018-10-21T19:23:14.553Z,58.50
2018-10-21T19:25:42.650Z,58.70
2018-10-21T19:28:10.835Z,58.70
2018-10-21T19:30:38.867Z,58.80
2018-10-21T19:33:06.950Z,58.80
2018-10-21T19:35:35.058Z,58.90
2018-10-21T19:38:03.164Z,59.00
2018-10-21T19:40:31.250Z,58.90
2018-10-21T19:42:59.453Z,59.20
2018-10-21T19:45:27.499Z,59.30
2018-10-21T19:47:55.579Z,59.30
2018-10-21T19:50:23.841Z,59.30
2018-10-21T19:52:51.924Z,59.40
2018-10-21T19:55:20.003Z,59.40
2018-10-21T19:57:48.103Z,59.50
2018-10-21T20:00:16.992Z,59.50
2018-10-21T20:02:45.427Z,59.60
2018-10-21T20:05:13.606Z,59.50
2018-10-21T20:07:41.770Z,59.30
2018-10-21T20:10:13.251Z,59.20
2018-10-21T20:12:41.372Z,59.20
2018-10-21T20:15:10.500Z,59.20
2018-10-21T20:17:38.983Z,59.30
2018-10-21T20:20:07.567Z,59.30
2018-10-21T20:22:35.726Z,59.30
2018-10-21T20:25:04.111Z,59.30
2018-10-21T20:27:32.167Z,59.40
2018-10-21T20:30:00.262Z,59.50
2018-10-21T20:32:28.336Z,59.50
2018-10-21T20:34:56.446Z,59.50
2018-10-21T20:37:24.905Z,59.60
2018-10-21T20:39:52.994Z,59.60
2018-10-21T20:42:21.175Z,60.20
2018-10-21T20:44:49.279Z,59.80
2018-10-21T20:47:17.483Z,59.80
2018-10-21T20:49:45.596Z,59.90
2018-10-21T20:52:13.684Z,60.00
2018-10-21T20:54:46.307Z,59.90
2018-10-21T20:57:14.707Z,60.00
2018-10-21T20:59:43.887Z,59.90
2018-10-21T21:02:13.089Z,60.00
2018-10-21T21:04:41.226Z,59.90
2018-10-21T21:07:09.867Z,60.00
2018-10-21T21:09:38.852Z,60.10
2018-10-21T21:12:06.973Z,60.20
2018-10-21T21:14:35.081Z,60.30
2018-10-21T21:17:03.750Z,60.30
2018-10-21T21:19:31.971Z,61.00
2018-10-21T21:22:00.097Z,60.40
2018-10-21T21:24:28.483Z,60.40
2018-10-21T21:26:56.554Z,60.40
2018-10-21T21:29:24.655Z,60.50
2018-10-21T21:31:52.739Z,60.60
2018-10-21T21:34:20.813Z,60.50
2018-10-21T21:36:48.900Z,60.60
2018-10-21T21:39:16.983Z,61.10
2018-10-21T21:41:46.108Z,61.10
2018-10-21T21:44:14.187Z,61.00
2018-10-21T21:46:42.667Z,60.90
2018-10-21T21:49:12.795Z,60.80
2018-10-21T21:51:40.898Z,60.70
2018-10-21T21:54:11.602Z,60.70
2018-10-21T21:56:40.000Z,60.70
2018-10-21T21:59:08.458Z,60.70
2018-10-21T22:01:36.739Z,60.60
2018-10-21T22:04:05.173Z,60.60
2018-10-21T22:06:33.211Z,60.60
2018-10-21T22:09:01.319Z,60.60
2018-10-21T22:11:29.413Z,60.50
2018-10-21T22:13:57.551Z,60.60
2018-10-21T22:16:25.626Z,60.50
2018-10-21T22:18:53.777Z,60.50
2018-10-21T22:21:21.875Z,60.50
2018-10-21T22:23:49.942Z,60.40
2018-10-21T22:26:18.027Z,60.40
2018-10-21T22:28:46.140Z,60.40
2018-10-21T22:31:14.214Z,60.30
2018-10-21T22:33:42.531Z,60.40
2018-10-21T22:36:10.678Z,60.60
2018-10-21T22:38:38.740Z,60.50
2018-10-21T22:41:06.855Z,60.50
2018-10-21T22:43:34.924Z,61.00
2018-10-21T22:46:03.090Z,60.80
2018-10-21T22:48:31.098Z,61.10
2018-10-21T22:50:59.175Z,61.30
2018-10-21T22:53:27.299Z,61.30
2018-10-21T22:55:55.373Z,61.10
2018-10-21T22:58:23.447Z,61.00
2018-10-21T23:00:51.539Z,60.90
2018-10-21T23:03:19.607Z,60.90
2018-10-21T23:05:47.679Z,60.80
2018-10-21T23:08:15.760Z,60.80
2018-10-21T23:10:43.967Z,60.80
2018-10-21T23:13:12.122Z,60.80
2018-10-21T23:15:40.209Z,60.80
2018-10-21T23:18:08.322Z,60.80
2018-10-21T23:20:36.371Z,60.90
2018-10-21T23:23:04.457Z,60.90
2018-10-21T23:25:32.526Z,61.00
2018-10-21T23:28:00.680Z,61.00
2018-10-21T23:30:28.722Z,61.10
2018-10-21T23:32:56.813Z,61.20
2018-10-21T23:35:24.898Z,61.10
2018-10-21T23:37:52.970Z,61.30
2018-10-21T23:40:21.139Z,62.10
2018-10-21T23:42:49.196Z,61.30
2018-10-21T23:45:17.277Z,61.40
2018-10-21T23:47:45.358Z,61.50
2018-10-21T23:50:13.431Z,61.40
2018-10-21T23:52:41.502Z,61.50
2018-10-21T23:55:09.603Z,61.50
2018-10-21T23:57:37.646Z,60.90
